Time;durP1;ratioP1;P1;durP2;ratioP2;P2;SDS_P1;SDS_P2;PMS_P1;PMS_P2;Temp;Humidity;BMP_temperature;BMP_pressure;BME280_temperature;BME280_humidity;BME280_pressure;Samples;Min_cycle;Max_cycle;Signal;HPM_P1;HPM_P2
2023/09/04 00:01:09;;;;;;;60.72;26.05;;;;;;;15.09;80.75;100055.22;4980865;28;20121;-87
2023/09/04 00:03:36;;;;;;;54.95;23.50;;;;;;;15.13;80.41;100045.19;4991288;28;20037;-86
2023/09/04 00:06:04;;;;;;;46.30;22.75;;;;;;;15.16;80.42;100047.28;5017666;28;20038;-86
2023/09/04 00:08:32;;;;;;;50.88;22.67;;;;;;;15.06;80.14;100019.25;5015911;28;20045;-86
2023/09/04 00:10:58;;;;;;;59.22;22.20;;;;;;;14.93;80.55;99999.84;5007714;28;20561;-86
2023/09/04 00:13:24;;;;;;;45.00;21.58;;;;;;;15.20;80.62;100040.00;4988304;28;20034;-87
2023/09/04 00:15:55;;;;;;;45.70;21.92;;;;;;;15.24;80.47;100043.72;5011501;28;20099;-87
2023/09/04 00:18:21;;;;;;;51.97;22.08;;;;;;;15.14;80.51;100026.72;4977493;28;20041;-88
2023/09/04 00:20:48;;;;;;;47.33;21.10;;;;;;;15.04;80.25;100009.41;5001599;28;20042;-84
2023/09/04 00:23:14;;;;;;;44.00;22.30;;;;;;;15.21;80.84;100041.59;5008225;28;20045;-86
2023/09/04 00:25:40;;;;;;;37.60;18.25;;;;;;;15.05;79.90;100021.22;4983354;28;20044;-84
2023/09/04 00:28:06;;;;;;;44.20;21.85;;;;;;;15.05;79.71;100018.47;5021657;28;20030;-87
2023/09/04 00:30:32;;;;;;;52.65;22.38;;;;;;;15.04;79.36;100016.84;4978037;28;20042;-86
2023/09/04 00:32:58;;;;;;;42.67;20.80;;;;;;;14.90;78.95;100002.44;4959582;28;20036;-86
2023/09/04 00:35:26;;;;;;;45.67;21.65;;;;;;;15.06;78.61;100030.28;5006859;28;20545;-85
2023/09/04 00:37:52;;;;;;;42.83;23.73;;;;;;;14.76;77.32;100003.41;5011261;28;20048;-85
2023/09/04 00:40:18;;;;;;;52.05;22.42;;;;;;;14.73;78.02;100004.06;4982662;28;20132;-86
2023/09/04 00:42:45;;;;;;;40.05;20.33;;;;;;;14.82;78.44;100019.78;4951530;28;20680;-87
2023/09/04 00:45:12;;;;;;;48.53;21.95;;;;;;;14.86;79.01;100026.25;4953320;28;20081;-85
2023/09/04 00:47:42;;;;;;;50.38;22.42;;;;;;;14.83;78.68;100041.44;4951533;28;20078;-86
2023/09/04 00:50:14;;;;;;;36.78;18.10;;;;;;;14.93;79.42;100049.41;4937775;28;20098;-86
2023/09/04 00:52:41;;;;;;;39.97;18.73;;;;;;;14.79;79.48;100022.03;4935079;28;20035;-84
2023/09/04 00:55:09;;;;;;;47.67;18.75;;;;;;;14.90;79.12;100039.06;4939539;28;20535;-87
2023/09/04 00:57:37;;;;;;;38.88;17.42;;;;;;;14.87;79.08;100041.66;4971478;28;20464;-85
2023/09/04 01:00:10;;;;;;;37.33;17.08;;;;;;;14.98;79.88;100052.00;4958401;28;20082;-87
2023/09/04 01:02:38;;;;;;;36.03;17.42;;;;;;;14.98;79.74;100042.94;4959995;28;20094;-86
2023/09/04 01:05:06;;;;;;;37.35;16.60;;;;;;;15.02;79.29;100024.63;4938668;28;20050;-86
2023/09/04 01:07:33;;;;;;;;;;;;;;;15.35;78.85;100049.69;4950824;28;20206;-86
2023/09/04 01:10:03;;;;;;;21.15;11.70;;;;;;;15.46;78.52;100050.97;4960195;28;20427;-86
2023/09/04 01:12:44;;;;;;;26.88;10.75;;;;;;;15.38;78.08;100013.22;4946483;28;20041;-86
2023/09/04 01:15:11;;;;;;;24.42;13.60;;;;;;;15.54;77.94;100024.53;4956766;28;20035;-86
2023/09/04 01:17:38;;;;;;;28.13;13.95;;;;;;;15.42;77.84;100016.13;4945166;28;20054;-87
2023/09/04 01:20:28;;;;;;;30.27;12.93;;;;;;;15.61;78.18;100052.38;4951238;28;20042;-86
2023/09/04 01:22:59;;;;;;;26.83;12.18;;;;;;;15.61;78.14;100043.31;4976494;28;20416;-85
2023/09/04 01:25:49;;;;;;;26.50;12.88;;;;;;;15.65;78.36;100056.09;4973876;28;20511;-86
2023/09/04 01:28:31;;;;;;;27.70;12.00;;;;;;;15.65;78.41;100044.25;4976877;28;20053;-86
2023/09/04 01:31:04;;;;;;;27.75;12.80;;;;;;;15.71;78.31;100052.06;4980665;28;20044;-86
2023/09/04 01:33:38;;;;;;;27.00;12.57;;;;;;;15.58;77.80;100025.47;4993982;28;20107;-86
2023/09/04 01:36:07;;;;;;;30.42;13.07;;;;;;;15.76;77.66;100059.34;5012051;28;20041;-85
2023/09/04 01:38:34;;;;;;;39.28;13.15;;;;;;;15.90;77.76;100053.63;5003565;28;20046;-86
2023/09/04 01:41:05;;;;;;;24.83;13.25;;;;;;;15.82;77.08;100030.44;4974139;28;20569;-86
2023/09/04 01:43:32;;;;;;;24.13;12.50;;;;;;;15.88;77.52;100044.88;4965721;28;20065;-85
2023/09/04 01:45:59;;;;;;;32.00;13.52;;;;;;;15.89;77.76;100049.22;4994022;28;20170;-86
2023/09/04 01:48:25;;;;;;;23.33;12.65;;;;;;;15.72;77.63;100033.56;4990402;28;20050;-86
2023/09/04 01:50:54;;;;;;;30.55;12.60;;;;;;;15.79;78.16;100047.63;5014105;28;20049;-85
2023/09/04 01:53:24;;;;;;;25.95;12.07;;;;;;;15.85;78.24;100056.56;4978123;28;20026;-86
2023/09/04 01:55:50;;;;;;;20.00;12.02;;;;;;;15.84;78.49;100057.69;5006460;28;20038;-86
2023/09/04 01:58:16;;;;;;;26.97;13.73;;;;;;;15.90;78.22;100067.41;4942222;28;20041;-87
2023/09/04 02:00:43;;;;;;;22.50;12.27;;;;;;;15.70;77.71;100033.91;4984934;28;20034;-86
2023/09/04 02:03:09;;;;;;;23.75;13.70;;;;;;;15.67;77.88;100015.28;5006497;28;20538;-86
2023/09/04 02:05:39;;;;;;;27.02;13.00;;;;;;;15.81;77.89;100050.88;5005939;28;20066;-86
2023/09/04 02:08:07;;;;;;;29.75;13.25;;;;;;;15.86;77.97;100060.91;5005702;28;20067;-88
2023/09/04 02:10:38;;;;;;;37.22;13.75;;;;;;;15.69;77.70;100043.31;5009726;28;20044;-87
2023/09/04 02:13:06;;;;;;;24.25;13.10;;;;;;;15.73;77.18;100058.06;4993878;28;20393;-86
2023/09/04 02:15:32;;;;;;;27.20;14.02;;;;;;;15.52;77.33;100046.88;4986798;28;20038;-84
2023/09/04 02:18:02;;;;;;;25.88;13.75;;;;;;;15.52;77.49;100059.84;5005853;28;20415;-86
2023/09/04 02:20:29;;;;;;;29.23;14.98;;;;;;;15.50;76.40;100068.47;5007782;28;20073;-87
2023/09/04 02:22:55;;;;;;;;;;;;;;;15.47;76.59;100079.34;4999631;28;20044;-86
2023/09/04 02:25:22;;;;;;;22.95;12.95;;;;;;;15.16;76.86;100055.53;4956019;28;19922;-86
2023/09/04 02:27:47;;;;;;;26.07;13.43;;;;;;;15.08;77.71;100042.59;4964376;28;20506;-87
2023/09/04 02:30:14;;;;;;;28.60;13.10;;;;;;;15.18;78.90;100061.53;4966849;28;20911;-86
2023/09/04 02:32:40;;;;;;;25.85;13.05;;;;;;;14.95;79.24;100030.63;4949997;28;20306;-87
2023/09/04 02:35:07;;;;;;;23.95;13.20;;;;;;;15.19;79.50;100051.31;4928576;28;20110;-85
2023/09/04 02:37:33;;;;;;;24.93;12.47;;;;;;;15.26;79.66;100059.91;4941185;28;20464;-86
2023/09/04 02:39:59;;;;;;;26.48;13.07;;;;;;;15.32;79.49;100071.56;4944729;28;20047;-86
2023/09/04 02:42:29;;;;;;;27.90;13.27;;;;;;;15.54;80.02;100089.84;4952796;29;20074;-86
2023/09/04 02:44:55;;;;;;;27.10;13.75;;;;;;;15.55;79.77;100084.00;4940288;28;20173;-86
2023/09/04 02:47:22;;;;;;;38.10;13.30;;;;;;;15.60;79.54;100085.81;4967902;28;20070;-86
2023/09/04 02:49:48;;;;;;;22.30;12.65;;;;;;;15.58;79.38;100080.59;4947090;28;20051;-87
2023/09/04 02:52:16;;;;;;;26.42;12.85;;;;;;;15.69;78.97;100090.19;4949800;28;20400;-87
2023/09/04 02:54:43;;;;;;;27.58;13.32;;;;;;;15.56;78.96;100066.31;4950135;28;20812;-87
2023/09/04 02:57:15;;;;;;;30.45;13.27;;;;;;;15.69;78.91;100094.88;4950245;28;20042;-86
2023/09/04 02:59:41;;;;;;;32.67;13.48;;;;;;;15.67;78.92;100089.69;4936278;29;20043;-87
2023/09/04 03:02:07;;;;;;;29.10;13.83;;;;;;;15.44;79.06;100063.44;4954583;28;20739;-86
2023/09/04 03:04:33;;;;;;;26.00;14.23;;;;;;;15.73;78.95;100104.94;4949748;28;20039;-88
2023/09/04 03:06:59;;;;;;;31.98;14.60;;;;;;;15.65;79.21;100097.44;4962817;28;20109;-86
2023/09/04 03:09:25;;;;;;;35.25;13.70;;;;;;;15.49;79.34;100079.81;4978749;28;20050;-88
2023/09/04 03:11:51;;;;;;;30.13;13.87;;;;;;;15.54;79.11;100076.88;4993976;28;20514;-87
2023/09/04 03:14:17;;;;;;;34.60;14.50;;;;;;;15.40;79.00;100065.25;4987306;28;20090;-90
2023/09/04 03:16:47;;;;;;;;;;;;;;;15.64;79.28;100111.56;4991876;28;20073;-88
2023/09/04 03:19:13;;;;;;;25.75;13.90;;;;;;;15.49;78.82;100088.06;4986431;28;19972;-89
2023/09/04 03:21:39;;;;;;;35.80;14.87;;;;;;;15.49;79.05;100113.66;4973107;28;20049;-93
2023/09/04 03:24:05;;;;;;;26.27;14.77;;;;;;;15.56;79.72;100126.94;4990116;28;20047;-85
2023/09/04 03:26:32;;;;;;;30.83;14.23;;;;;;;15.45;79.24;100107.19;4980466;28;20096;-86
2023/09/04 03:28:58;;;;;;;32.22;15.00;;;;;;;15.59;79.33;100134.56;4988533;28;20171;-86
2023/09/04 03:31:24;;;;;;;35.47;15.15;;;;;;;15.59;79.06;100131.00;4983250;28;20061;-87
2023/09/04 03:33:50;;;;;;;35.45;15.30;;;;;;;15.53;79.58;100124.88;4989953;28;20045;-86
2023/09/04 03:36:17;;;;;;;30.52;15.95;;;;;;;15.60;79.85;100116.13;4993283;28;20045;-90
2023/09/04 03:38:44;;;;;;;25.05;15.52;;;;;;;15.55;79.35;100106.06;5018228;28;20048;-96
2023/09/04 03:41:10;;;;;;;24.70;14.25;;;;;;;15.85;79.26;100136.50;5003875;28;20038;-93
2023/09/04 03:43:35;;;;;;;29.23;14.82;;;;;;;15.81;78.70;100125.31;4986126;28;20069;-86
2023/09/04 03:46:02;;;;;;;28.00;13.68;;;;;;;15.94;77.82;100121.56;5001881;28;20100;-87
2023/09/04 03:48:28;;;;;;;26.55;13.98;;;;;;;16.09;77.55;100139.53;4973406;28;20033;-85
2023/09/04 03:51:01;;;;;;;26.73;14.00;;;;;;;16.02;77.49;100116.34;4982574;28;20050;-87
2023/09/04 03:53:27;;;;;;;30.48;13.68;;;;;;;16.10;77.30;100121.03;4982745;28;20049;-87
2023/09/04 03:56:07;;;;;;;25.52;13.57;;;;;;;16.28;76.83;100130.03;4999132;28;20054;-92
2023/09/04 03:58:35;;;;;;;29.95;12.82;;;;;;;16.07;75.65;100092.16;4999191;28;20128;-87
2023/09/04 04:01:08;;;;;;;27.08;11.68;;;;;;;16.19;75.26;100102.47;4981242;28;20090;-86
2023/09/04 04:03:57;;;;;;;33.90;12.82;;;;;;;16.26;75.23;100100.03;5024552;28;20061;-87
2023/09/04 04:06:59;;;;;;;23.77;11.63;;;;;;;16.55;74.95;100132.34;5016040;28;20065;-92
2023/09/04 04:09:26;;;;;;;24.67;11.60;;;;;;;16.59;74.27;100127.78;4929904;29;20080;-95
2023/09/04 04:11:59;;;;;;;23.90;11.30;;;;;;;16.66;73.40;100139.09;4930464;29;20111;-90
2023/09/04 04:14:29;;;;;;;20.33;10.93;;;;;;;16.29;73.61;100065.44;4932484;29;20506;-88
2023/09/04 04:16:55;;;;;;;18.73;11.32;;;;;;;16.67;73.79;100118.63;4918481;29;20034;-93
2023/09/04 04:19:23;;;;;;;28.40;11.57;;;;;;;16.89;74.28;100145.19;4921620;29;20052;-86
2023/09/04 04:21:50;;;;;;;24.27;12.13;;;;;;;16.98;74.92;100147.06;4919295;29;20039;-86
2023/09/04 04:24:17;;;;;;;21.17;11.57;;;;;;;16.65;73.92;100096.09;4900638;29;20044;-88
2023/09/04 04:26:43;;;;;;;29.85;11.75;;;;;;;17.10;74.18;100144.38;4896114;29;20172;-85
2023/09/04 04:29:11;;;;;;;23.92;12.27;;;;;;;17.09;74.27;100151.06;4918267;29;20055;-85
2023/09/04 04:31:57;;;;;;;33.10;12.80;;;;;;;17.17;74.59;100152.13;4893634;29;20044;-93
2023/09/04 04:34:42;;;;;;;27.83;10.85;;;;;;;17.19;74.12;100134.06;4919619;29;20039;-91
2023/09/04 04:37:11;;;;;;;29.23;11.40;;;;;;;17.17;74.11;100121.72;4895432;29;20051;-94
2023/09/04 04:39:38;;;;;;;23.55;9.90;;;;;;;17.33;73.30;100155.91;4909443;29;20064;-87
2023/09/04 04:42:04;;;;;;;27.67;10.90;;;;;;;17.02;73.54;100090.81;4886977;29;20079;-91
2023/09/04 04:44:31;;;;;;;20.38;9.55;;;;;;;17.31;73.03;100134.13;4873159;29;20040;-94
2023/09/04 04:47:09;;;;;;;;;;;;;;;17.51;71.94;100149.06;4948498;29;20031;-89
2023/09/04 04:49:37;;;;;;;26.80;11.95;;;;;;;17.31;71.91;100097.38;4959830;29;19926;-91
2023/09/04 04:52:04;;;;;;;23.40;9.85;;;;;;;17.46;71.24;100118.06;4950509;29;20063;-95
2023/09/04 04:54:30;;;;;;;17.73;10.27;;;;;;;17.53;71.99;100130.19;4891875;29;20043;-90
2023/09/04 04:56:56;;;;;;;20.92;9.73;;;;;;;17.51;71.18;100117.84;4949449;29;20047;-95
2023/09/04 04:59:22;;;;;;;21.52;9.80;;;;;;;17.56;71.69;100117.66;4914841;29;20086;-95
2023/09/04 05:01:48;;;;;;;22.97;10.53;;;;;;;17.45;69.89;100095.16;4902501;29;20071;-93
2023/09/04 05:04:15;;;;;;;19.50;10.10;;;;;;;17.88;69.73;100157.53;4924350;29;20051;-95
2023/09/04 05:06:42;;;;;;;;;;;;;;;17.97;70.50;100160.19;4932798;29;20208;-94
2023/09/04 05:09:08;;;;;;;18.90;9.68;;;;;;;17.60;70.99;100097.25;4926460;29;20425;-92
2023/09/04 05:11:35;;;;;;;26.35;9.73;;;;;;;18.02;68.83;100152.50;4901347;29;20561;-94
2023/09/04 05:14:01;;;;;;;18.35;9.98;;;;;;;18.03;68.37;100165.19;4889218;29;20047;-95
2023/09/04 05:16:27;;;;;;;26.25;9.98;;;;;;;17.97;68.92;100133.34;4932538;29;20059;-93
2023/09/04 05:18:55;;;;;;;22.25;10.43;;;;;;;18.07;68.78;100137.63;4954446;28;20042;-90
2023/09/04 05:21:21;;;;;;;23.73;10.90;;;;;;;17.96;68.49;100120.66;4945059;28;20038;-91
2023/09/04 05:23:50;;;;;;;22.63;11.13;;;;;;;17.99;68.79;100125.50;4977390;28;20129;-92
2023/09/04 05:26:16;;;;;;;30.10;11.57;;;;;;;18.18;69.22;100155.41;4969827;28;20114;-89
2023/09/04 05:28:42;;;;;;;23.37;11.27;;;;;;;18.04;68.39;100138.31;4970422;28;20531;-92
2023/09/04 05:31:08;;;;;;;26.73;11.63;;;;;;;18.00;69.10;100110.53;4971414;28;20030;-91
2023/09/04 05:33:34;;;;;;;28.50;12.47;;;;;;;18.12;69.16;100122.78;4947970;28;20035;-89
2023/09/04 05:36:00;;;;;;;29.13;12.37;;;;;;;17.96;68.47;100092.19;4963157;28;20034;-88
2023/09/04 05:38:29;;;;;;;;;;;;;;;18.38;67.83;100147.38;4953665;28;20066;-91
2023/09/04 05:41:00;;;;;;;29.92;11.38;;;;;;;18.27;68.38;100125.66;4958736;28;19926;-88
2023/09/04 05:43:26;;;;;;;19.33;11.38;;;;;;;18.22;66.82;100112.06;4946717;28;20047;-87
2023/09/04 05:45:52;;;;;;;20.33;10.77;;;;;;;18.52;67.14;100140.31;4948813;28;20101;-89
2023/09/04 05:48:18;;;;;;;30.80;11.33;;;;;;;18.29;67.33;100095.69;4960695;28;20144;-91
2023/09/04 05:50:44;;;;;;;31.13;11.63;;;;;;;18.34;66.76;100113.19;4967390;28;20041;-90
2023/09/04 05:53:10;;;;;;;22.13;10.87;;;;;;;18.25;66.55;100103.06;4970174;28;20034;-91
2023/09/04 05:55:36;;;;;;;21.67;10.27;;;;;;;18.46;65.92;100116.78;4978297;28;20041;-90
2023/09/04 05:58:03;;;;;;;30.10;11.02;;;;;;;18.26;66.26;100088.06;4967064;28;20542;-92
2023/09/04 06:00:29;;;;;;;25.45;11.30;;;;;;;18.57;65.70;100121.84;4977180;28;20038;-90
2023/09/04 06:02:56;;;;;;;23.08;11.23;;;;;;;18.42;65.21;100090.97;4958383;28;20689;-89
2023/09/04 06:05:24;;;;;;;22.67;10.90;;;;;;;18.53;65.14;100108.69;4995689;28;20038;-89
2023/09/04 06:07:50;;;;;;;27.35;11.18;;;;;;;18.59;65.61;100109.28;4986269;28;20042;-89
2023/09/04 06:10:17;;;;;;;27.03;11.30;;;;;;;18.72;64.65;100130.31;4966265;28;20077;-89
2023/09/04 06:12:46;;;;;;;18.75;10.35;;;;;;;18.71;64.77;100119.56;4967424;28;20046;-89
2023/09/04 06:15:12;;;;;;;19.77;10.17;;;;;;;18.83;64.65;100135.38;4963858;28;20044;-92
2023/09/04 06:17:38;;;;;;;25.45;10.75;;;;;;;18.84;64.84;100123.97;5002883;28;20030;-90
2023/09/04 06:20:04;;;;;;;29.57;10.57;;;;;;;18.85;63.58;100111.72;4973064;28;20125;-89
2023/09/04 06:22:31;;;;;;;110.22;16.33;;;;;;;18.77;62.91;100099.63;4996549;28;20049;-92
2023/09/04 06:24:57;;;;;;;;;;;;;;;19.04;63.42;100144.34;4979606;28;20038;-91
2023/09/04 06:27:23;;;;;;;30.17;10.50;;;;;;;19.04;64.53;100129.66;4981343;28;20200;-87
2023/09/04 06:29:49;;;;;;;30.43;11.20;;;;;;;18.91;63.22;100110.31;4981183;28;20301;-89
2023/09/04 06:32:14;;;;;;;33.50;10.60;;;;;;;19.11;63.31;100132.69;5007066;28;20064;-94
2023/09/04 06:34:40;;;;;;;29.27;10.80;;;;;;;19.39;64.07;100160.41;5005017;28;20081;-92
2023/09/04 06:37:06;;;;;;;19.93;10.50;;;;;;;19.37;62.91;100154.41;5003395;28;20320;-93
2023/09/04 06:39:32;;;;;;;30.77;9.47;;;;;;;19.31;63.54;100126.13;4980481;28;20035;-91
2023/09/04 06:41:58;;;;;;;26.17;10.17;;;;;;;19.40;62.58;100132.34;4990342;28;20309;-89
2023/09/04 06:44:32;;;;;;;29.65;11.25;;;;;;;19.71;62.44;100166.91;5013843;28;20034;-95
2023/09/04 06:46:58;;;;;;;24.60;11.27;;;;;;;19.63;60.42;100163.13;5001537;28;20047;-89
2023/09/04 06:49:24;;;;;;;19.70;11.13;;;;;;;19.49;60.39;100152.41;5027234;28;20101;-88
2023/09/04 06:51:50;;;;;;;27.03;11.00;;;;;;;19.49;60.50;100143.28;5007521;28;20053;-89
2023/09/04 06:54:19;;;;;;;20.87;10.23;;;;;;;19.42;61.44;100121.69;5023615;28;20050;-89
2023/09/04 06:56:45;;;;;;;29.77;12.07;;;;;;;19.58;62.10;100134.81;4998923;28;20058;-88
2023/09/04 06:59:11;;;;;;;35.33;12.90;;;;;;;19.66;60.11;100148.53;5013353;28;20046;-88
2023/09/04 07:01:37;;;;;;;41.75;12.55;;;;;;;19.85;62.11;100161.75;4975907;28;20076;-87
2023/09/04 07:04:03;;;;;;;79.70;14.53;;;;;;;19.88;61.09;100152.72;4972585;28;20078;-88
2023/09/04 07:06:29;;;;;;;33.80;12.30;;;;;;;19.74;58.98;100141.25;5003554;28;20110;-94
2023/09/04 07:08:55;;;;;;;41.13;12.73;;;;;;;19.78;59.10;100142.13;4959340;28;20050;-88
2023/09/04 07:11:22;;;;;;;24.13;12.00;;;;;;;19.72;58.83;100146.34;4998359;28;20164;-94
2023/09/04 07:13:48;;;;;;;92.68;16.13;;;;;;;19.65;58.84;100133.06;5004005;28;20035;-94
2023/09/04 07:16:13;;;;;;;59.70;12.23;;;;;;;19.93;59.39;100174.69;5008844;28;20057;-88
2023/09/04 07:18:39;;;;;;;26.30;11.60;;;;;;;19.96;58.35;100170.38;5007290;28;20096;-89
2023/09/04 07:21:05;;;;;;;25.10;9.97;;;;;;;20.04;59.08;100172.19;5005498;28;20050;-92
2023/09/04 07:23:31;;;;;;;33.70;10.27;;;;;;;20.09;59.31;100174.69;4979300;28;20052;-87
2023/09/04 07:25:57;;;;;;;32.37;11.53;;;;;;;19.85;58.67;100128.47;5002290;28;20042;-93
2023/09/04 07:28:23;;;;;;;43.70;11.83;;;;;;;20.07;58.07;100149.25;4996285;28;20039;-87
2023/09/04 07:30:49;;;;;;;63.65;13.25;;;;;;;20.06;58.02;100135.72;4984831;28;20731;-88
2023/09/04 07:33:16;;;;;;;43.83;12.20;;;;;;;20.26;59.37;100147.75;4984713;28;20501;-91
2023/09/04 07:35:42;;;;;;;54.08;11.20;;;;;;;20.35;58.07;100137.25;4986741;28;20072;-89
2023/09/04 07:38:08;;;;;;;57.17;12.65;;;;;;;20.70;57.03;100172.69;4975472;28;20458;-88
2023/09/04 07:40:34;;;;;;;42.80;11.40;;;;;;;20.60;56.83;100162.91;4997229;28;20170;-89
2023/09/04 07:43:01;;;;;;;29.97;11.17;;;;;;;20.40;57.12;100129.47;4955607;28;20034;-87
2023/09/04 07:45:26;;;;;;;36.00;11.57;;;;;;;20.59;58.02;100155.72;4971150;28;20377;-92
2023/09/04 07:47:52;;;;;;;34.73;10.90;;;;;;;20.78;58.67;100161.34;4997297;28;20091;-86
2023/09/04 07:50:18;;;;;;;28.40;9.17;;;;;;;20.96;57.69;100183.19;4979650;28;20426;-86
2023/09/04 07:52:45;;;;;;;47.42;11.80;;;;;;;20.77;57.19;100143.09;4996603;28;20522;-86
2023/09/04 07:55:11;;;;;;;19.13;8.73;;;;;;;20.84;56.73;100151.59;4971390;28;20037;-87
2023/09/04 07:57:37;;;;;;;13.85;8.45;;;;;;;21.12;56.22;100192.31;4985441;28;20050;-88
2023/09/04 08:00:03;;;;;;;22.00;9.40;;;;;;;21.02;56.39;100167.84;5006119;28;20223;-90
2023/09/04 08:02:39;;;;;;;24.17;9.73;;;;;;;21.08;53.94;100174.75;4982338;28;20042;-88
2023/09/04 08:05:05;;;;;;;14.13;8.48;;;;;;;21.08;54.65;100153.31;4980093;28;20369;-93
2023/09/04 08:07:31;;;;;;;23.33;8.90;;;;;;;21.08;55.57;100135.81;4991679;28;20045;-95
2023/09/04 08:09:58;;;;;;;17.90;7.23;;;;;;;21.32;53.55;100165.31;5005358;28;20029;-89
2023/09/04 08:12:24;;;;;;;15.40;6.70;;;;;;;21.42;53.33;100184.25;5003736;28;20068;-88
2023/09/04 08:14:51;;;;;;;19.33;7.17;;;;;;;21.46;54.42;100174.03;4989266;28;20038;-94
2023/09/04 08:17:17;;;;;;;;;;;;;;;21.65;52.76;100187.13;4984223;28;20026;-88
2023/09/04 08:19:43;;;;;;;27.70;8.20;;;;;;;21.71;52.57;100191.22;5013231;28;19922;-90
2023/09/04 08:22:10;;;;;;;27.75;6.97;;;;;;;21.47;51.39;100155.34;4989173;28;20203;-87
2023/09/04 08:24:36;;;;;;;16.33;6.70;;;;;;;21.56;53.15;100150.38;4986812;28;20179;-87
2023/09/04 08:27:02;;;;;;;16.80;6.40;;;;;;;21.63;51.01;100158.88;4993171;28;20124;-88
2023/09/04 08:29:28;;;;;;;30.80;6.35;;;;;;;21.72;51.23;100173.38;4970518;28;20297;-93
2023/09/04 08:31:54;;;;;;;22.40;6.30;;;;;;;21.76;50.15;100176.22;4990084;28;20037;-94
2023/09/04 08:34:20;;;;;;;22.20;6.93;;;;;;;21.74;50.00;100171.00;4980067;28;20065;-92
2023/09/04 08:36:46;;;;;;;24.88;6.13;;;;;;;21.79;48.01;100172.69;5005896;28;20125;-85
2023/09/04 08:39:12;;;;;;;14.07;6.00;;;;;;;21.71;49.24;100159.81;4982127;28;20084;-84
2023/09/04 08:41:38;;;;;;;22.77;7.05;;;;;;;21.79;49.40;100176.28;5012268;28;20053;-86
2023/09/04 08:44:05;;;;;;;22.27;6.28;;;;;;;21.47;49.39;100133.09;4978541;28;20038;-90
2023/09/04 08:46:34;;;;;;;11.95;6.18;;;;;;;21.92;51.17;100184.44;4979737;28;20045;-85
2023/09/04 08:49:02;;;;;;;25.40;7.25;;;;;;;21.95;49.76;100172.59;4954399;28;20054;-87
2023/09/04 08:51:29;;;;;;;27.80;8.32;;;;;;;22.24;49.27;100191.47;4983893;28;20688;-85
2023/09/04 08:53:56;;;;;;;43.30;8.30;;;;;;;22.25;48.34;100190.31;5000441;28;20461;-86
2023/09/04 08:56:22;;;;;;;21.95;6.82;;;;;;;22.32;49.54;100188.78;4990219;28;20038;-87
2023/09/04 08:58:48;;;;;;;33.22;7.70;;;;;;;22.09;47.90;100160.94;4992880;28;20061;-93
2023/09/04 09:01:15;;;;;;;24.33;7.97;;;;;;;22.23;49.07;100198.22;5003639;28;20046;-86
2023/09/04 09:03:42;;;;;;;19.45;7.13;;;;;;;22.22;48.48;100193.81;4989629;28;20383;-89
2023/09/04 09:06:08;;;;;;;14.52;6.22;;;;;;;21.87;50.97;100137.44;5011889;28;20076;-86
2023/09/04 09:08:37;;;;;;;24.92;6.20;;;;;;;22.20;48.14;100200.94;5002338;28;20095;-87
2023/09/04 09:11:04;;;;;;;16.20;6.05;;;;;;;22.14;47.83;100189.25;4998772;28;20161;-87
2023/09/04 09:13:30;;;;;;;15.77;5.93;;;;;;;21.89;47.71;100140.69;5001047;28;20571;-87
2023/09/04 09:15:57;;;;;;;12.77;5.28;;;;;;;22.11;48.10;100176.06;5004632;28;20073;-88
2023/09/04 09:18:42;;;;;;;15.30;5.57;;;;;;;22.21;48.42;100188.63;4981674;28;20038;-91
2023/09/04 09:21:25;;;;;;;12.95;5.00;;;;;;;22.14;49.20;100157.81;5001264;28;20123;-89
2023/09/04 09:24:17;;;;;;;14.07;6.03;;;;;;;22.40;49.53;100193.34;4992944;28;20044;-91
2023/09/04 09:26:48;;;;;;;10.23;5.72;;;;;;;22.38;48.14;100181.75;5001714;28;20141;-91
2023/09/04 09:29:15;;;;;;;14.00;6.10;;;;;;;22.31;48.13;100170.47;5001169;28;20041;-87
2023/09/04 09:31:44;;;;;;;12.13;5.82;;;;;;;22.32;48.23;100172.91;4979514;28;20046;-88
2023/09/04 09:34:11;;;;;;;22.83;5.97;;;;;;;22.58;47.90;100194.41;4985984;28;20034;-90
2023/09/04 09:36:37;;;;;;;18.83;5.57;;;;;;;22.64;49.51;100170.63;4989734;28;20042;-94
2023/09/04 09:39:05;;;;;;;17.70;5.18;;;;;;;22.55;46.59;100150.59;5002224;28;20042;-89
2023/09/04 09:41:34;;;;;;;22.73;6.45;;;;;;;22.58;48.25;100140.69;5006036;28;20069;-94
2023/09/04 09:44:02;;;;;;;25.33;5.90;;;;;;;22.88;47.63;100188.97;4993289;28;20037;-89
2023/09/04 09:46:37;;;;;;;11.15;5.70;;;;;;;22.74;48.61;100163.63;5008429;28;20050;-89
2023/09/04 09:49:07;;;;;;;16.52;6.50;;;;;;;22.86;45.49;100174.56;4991306;28;20050;-88
2023/09/04 09:51:41;;;;;;;12.75;5.78;;;;;;;22.87;43.15;100194.88;4987083;28;20045;-89
2023/09/04 09:54:08;;;;;;;23.42;7.70;;;;;;;22.90;46.49;100191.34;4971405;28;20062;-94
2023/09/04 09:56:35;;;;;;;14.07;5.90;;;;;;;22.77;45.68;100167.66;4997511;28;20414;-89
2023/09/04 09:59:01;;;;;;;9.70;5.03;;;;;;;22.85;46.43;100177.75;4996325;28;20196;-91
2023/09/04 10:01:31;;;;;;;23.65;5.07;;;;;;;22.58;44.13;100140.69;4969376;28;20046;-90
2023/09/04 10:04:05;;;;;;;11.45;4.68;;;;;;;22.54;43.35;100146.19;4990223;28;20050;-93
2023/09/04 10:06:34;;;;;;;6.43;4.20;;;;;;;22.61;45.48;100154.66;4975050;28;20038;-93
2023/09/04 10:09:00;;;;;;;17.50;4.90;;;;;;;22.63;44.16;100160.69;4965840;28;20085;-94
2023/09/04 10:11:31;;;;;;;24.27;5.13;;;;;;;22.94;45.78;100186.66;4996108;28;20049;-92
2023/09/04 10:14:25;;;;;;;22.67;6.20;;;;;;;22.90;44.29;100177.41;4998000;28;20037;-92
2023/09/04 10:17:03;;;;;;;14.32;5.10;;;;;;;23.08;43.15;100205.59;4979464;28;20034;-90
2023/09/04 10:19:33;;;;;;;20.48;5.50;;;;;;;23.15;43.81;100208.50;4985594;28;20053;-94
2023/09/04 10:22:12;;;;;;;28.63;5.10;;;;;;;23.12;43.15;100195.31;4974332;28;20086;-87
2023/09/04 10:25:04;;;;;;;18.27;4.63;;;;;;;23.08;44.51;100186.06;5002951;28;20045;-88
2023/09/04 10:27:32;;;;;;;27.75;7.50;;;;;;;23.33;43.84;100203.16;4994298;28;20046;-88
2023/09/04 10:30:09;;;;;;;34.50;5.43;;;;;;;23.44;43.01;100192.94;5007189;28;20046;-87
2023/09/04 10:32:38;;;;;;;28.08;4.80;;;;;;;23.35;43.42;100162.56;4989087;28;20326;-89
2023/09/04 10:35:07;;;;;;;12.02;4.28;;;;;;;23.34;43.71;100158.13;4972613;28;20144;-88
2023/09/04 10:37:34;;;;;;;11.98;4.85;;;;;;;23.57;43.10;100185.13;5003228;28;20038;-89
2023/09/04 10:40:02;;;;;;;14.43;4.35;;;;;;;23.65;43.88;100182.06;4987056;28;20138;-90
2023/09/04 10:42:30;;;;;;;25.33;5.50;;;;;;;23.75;44.55;100182.59;4973905;28;20061;-90
2023/09/04 10:44:56;;;;;;;14.70;5.15;;;;;;;23.61;41.02;100178.44;5008882;28;20042;-88
2023/09/04 10:47:23;;;;;;;12.23;4.50;;;;;;;23.51;40.87;100156.78;4999372;28;20050;-92
2023/09/04 10:49:51;;;;;;;7.13;3.35;;;;;;;23.48;41.48;100151.13;4977669;28;20060;-90
2023/09/04 10:52:17;;;;;;;7.07;4.32;;;;;;;23.43;41.14;100163.44;4995470;28;20057;-89
2023/09/04 10:54:45;;;;;;;10.18;3.97;;;;;;;23.59;41.74;100193.94;4999361;28;20053;-92
2023/09/04 10:57:51;;;;;;;5.28;3.95;;;;;;;23.71;41.04;100193.72;4996468;28;20046;-94
2023/09/04 11:00:34;;;;;;;14.73;4.40;;;;;;;23.70;41.24;100188.50;4994057;28;20034;-92
2023/09/04 11:03:27;;;;;;;8.30;4.07;;;;;;;23.48;42.33;100171.47;5000550;28;20756;-89
2023/09/04 11:06:02;;;;;;;9.77;3.67;;;;;;;23.74;42.61;100203.31;5014646;28;20021;-90
2023/09/04 11:08:33;;;;;;;15.95;4.28;;;;;;;23.86;40.86;100200.28;5010376;28;20046;-93
2023/09/04 11:11:04;;;;;;;93.13;6.60;;;;;;;23.75;40.93;100163.06;4982307;28;20042;-93
2023/09/04 11:13:39;;;;;;;37.53;4.80;;;;;;;23.94;40.29;100187.19;4994508;28;20037;-96
2023/09/04 11:16:37;;;;;;;11.15;3.58;;;;;;;24.04;39.80;100195.69;5020955;28;20044;-90
2023/09/04 11:19:21;;;;;;;13.23;3.53;;;;;;;24.00;39.83;100188.44;5021926;28;20051;-93
2023/09/04 11:21:49;;;;;;;16.83;3.63;;;;;;;23.74;38.84;100158.63;5002648;28;20054;-91